Latest Weather Observations for Dwellingup

IDW60801

Issued at 10:43 pm WST Saturday 23 January 2021 (issued every 10 minutes, with the page automatically refreshed every 10 minutes)

About weather observations | Map of weather stations | Latest weather observations for WA | Other Formats
Station Details ID: 009538 Name: DWELLINGUP Lat: -32.71 Lon: 116.06 Height: 267.0 m
Data from the previous 72 hours. | See also: Recent months at Dwellingup
Date/Time
WST
Temp
°C
App
Temp
°C
Dew
Point
°C
Rel
Hum
%
Delta-T
°C
Wind Press
QNH
hPa
Press
MSL
hPa
Rain since
9am
mm
Dir  Spd
km/h
Gust
km/h
Spd
kts
Gust
kts
23/10:30pm 17.3 16.9 13.0 76 2.4 W 7 13 4 7 1006.5 1005.3 0.0
23/10:00pm 17.7 16.9 12.8 73 2.8 SW 9 15 5 8 1006.7 1005.5 0.0
23/09:30pm 18.3 17.4 12.7 70 3.2 SW 9 15 5 8 1006.5 1005.3 0.0
23/09:00pm 18.5 17.4 13.1 71 3.1 WSW 11 20 6 11 1006.2 1005.0 0.0
23/08:30pm 18.6 17.6 13.5 72 2.9 WSW 11 20 6 11 1005.8 1004.6 0.0
23/08:00pm 18.6 16.4 13.2 71 3.1 WSW 17 28 9 15 1005.5 1004.3 0.0
23/07:30pm 19.2 16.7 13.6 70 3.2 WSW 19 26 10 14 1005.3 1004.1 0.0
23/07:00pm 20.0 17.9 13.7 67 3.7 WSW 17 28 9 15 1005.0 1003.8 0.0
23/06:30pm 21.9 19.4 13.5 59 4.9 WSW 19 33 10 18 1004.4 1003.2 0.0
23/06:00pm 24.0 21.2 12.6 49 6.6 WSW 19 30 10 16 1003.7 1002.6 0.0
23/05:30pm 24.3 22.3 12.6 48 6.8 WSW 15 26 8 14 1003.2 1002.0 0.0
23/05:00pm 24.4 22.6 13.3 50 6.6 WSW 15 28 8 15 1003.2 1002.0 0.0
23/04:30pm 24.8 22.7 12.4 46 7.2 SW 15 26 8 14 1003.1 1001.9 0.0
23/04:00pm 25.7 23.4 12.9 45 7.6 WSW 17 32 9 17 1003.3 1002.1 0.0
23/03:30pm 26.7 24.7 12.7 42 8.2 W 15 30 8 16 1003.0 1001.8 0.0
23/03:00pm 26.8 23.8 12.5 41 8.4 W 20 35 11 19 1002.9 1001.7 0.0
23/02:30pm 26.5 23.5 11.8 40 8.5 W 19 37 10 20 1002.9 1001.7 0.0
23/02:00pm 27.2 25.4 13.2 42 8.4 WSW 15 26 8 14 1002.8 1001.6 0.0
23/01:30pm 27.5 25.0 13.4 41 8.4 W 19 32 10 17 1002.9 1001.7 0.0
23/01:00pm 27.0 25.5 14.1 45 7.8 W 15 30 8 16 1002.9 1001.7 0.0
23/12:30pm 26.0 24.3 14.8 50 6.8 SW 17 33 9 18 1002.9 1001.7 0.0
23/12:00pm 26.3 24.0 14.7 48 7.1 WSW 20 33 11 18 1003.2 1002.0 0.0
23/11:30am 26.1 23.8 14.2 48 7.2 WSW 19 33 10 18 1003.4 1002.2 0.0
23/11:00am 26.5 24.3 13.3 44 7.9 WSW 17 33 9 18 1003.1 1001.9 0.0
23/10:30am 26.5 24.1 13.9 45 7.6 SW 19 32 10 17 1003.2 1002.0 0.0
23/10:00am 26.8 24.9 14.2 46 7.6 W 17 30 9 16 1003.2 1002.0 0.0
23/09:30am 26.1 24.6 14.2 48 7.2 W 15 24 8 13 1002.6 1001.4 0.0
23/09:00am 25.1 23.8 13.6 49 6.9 W 13 24 7 13 1002.5 1001.3 0.0
23/08:30am 24.4 23.6 13.9 52 6.2 WNW 11 19 6 10 1002.7 1001.5 0.0
23/08:00am 23.1 22.8 14.4 58 5.2 WNW 9 15 5 8 1002.5 1001.3 0.0
23/07:30am 21.0 21.0 14.2 65 4.0 W 7 11 4 6 1002.4 1001.2 0.0
23/07:00am 17.7 16.1 12.8 73 2.8 W 13 17 7 9 1002.5 1001.3 0.0
23/06:30am 15.6 15.0 11.6 77 2.2 E 6 7 3 4 1002.0 1000.8 0.0
23/06:00am 15.0 13.6 10.8 76 2.3 ESE 9 9 5 5 1002.1 1000.9 0.0
23/05:30am 15.1 13.6 10.7 75 2.4 SE 9 11 5 6 1002.2 1001.0 0.0
23/05:00am 15.4 13.5 10.6 73 2.6 ESE 11 11 6 6 1002.3 1001.1 0.0
23/04:30am 15.5 13.7 10.7 73 2.6 SE 11 13 6 7 1002.1 1000.9 0.0
23/04:00am 15.8 13.5 10.6 71 2.8 SE 13 15 7 8 1002.1 1000.9 0.0
23/03:30am 16.5 14.3 10.8 69 3.1 ESE 13 17 7 9 1001.8 1000.6 0.0
23/03:00am 16.4 13.7 10.5 68 3.2 ESE 15 19 8 10 1001.7 1000.5 0.0
23/02:30am 17.0 14.4 10.8 67 3.4 ESE 15 20 8 11 1002.1 1000.9 0.0
23/02:00am 17.1 14.9 10.9 67 3.4 SE 13 17 7 9 1002.2 1001.0 0.0
23/01:30am 17.3 15.2 11.1 67 3.4 SE 13 17 7 9 1002.3 1001.1 0.0
23/01:00am 17.7 15.5 10.8 64 3.8 SE 13 19 7 10 1002.6 1001.4 0.0
23/12:30am 18.3 16.2 11.1 63 4.0 SE 13 17 7 9 1002.9 1001.7 0.0
23/12:00am 18.4 16.3 11.2 63 4.0 SE 13 17 7 9 1003.4 1002.2 0.0
 
Date/Time
WST
Temp
°C
App
Temp
°C
Dew
Point
°C
Rel
Hum
%
Delta-T
°C
Wind Press
QNH
hPa
Press
MSL
hPa
Rain since
9am
mm
Dir  Spd
km/h
Gust
km/h
Spd
kts
Gust
kts
22/11:30pm 19.4 17.5 11.7 61 4.3 SSE 13 19 7 10 1003.8 1002.7 0.0
22/11:00pm 20.3 17.9 11.5 57 4.9 SSE 15 24 8 13 1004.2 1003.0 0.0
22/10:30pm 20.9 19.1 12.1 57 5.0 SSE 13 19 7 10 1004.2 1003.0 0.0
22/10:00pm 21.8 19.5 11.8 53 5.7 SSE 15 20 8 11 1003.8 1002.7 0.0
22/09:30pm 22.5 20.2 11.9 51 6.0 S 15 20 8 11 1003.8 1002.7 0.0
22/09:00pm 22.9 21.1 12.2 51 6.2 SSW 13 17 7 9 1004.0 1002.8 0.0
22/08:30pm 23.6 21.8 12.0 48 6.7 SSW 13 19 7 10 1004.0 1002.8 0.0
22/08:00pm 25.0 23.1 11.9 44 7.6 SSW 13 19 7 10 1003.7 1002.6 0.0
22/07:30pm 25.6 23.6 11.4 41 8.1 SW 13 24 7 13 1003.6 1002.5 0.0
22/07:00pm 26.5 24.4 11.0 38 8.9 SW 13 20 7 11 1003.5 1002.4 0.0
22/06:30pm 27.6 24.8 9.9 33 10.0 SW 15 24 8 13 1003.5 1002.4 0.0
22/06:00pm 28.7 24.5 9.9 31 10.7 WSW 22 33 12 18 1003.3 1002.1 0.0
22/05:30pm 29.4 25.3 10.0 30 11.1 WSW 22 35 12 19 1003.2 1002.0 0.0
22/05:00pm 30.5 25.8 10.5 29 11.6 WSW 26 43 14 23 1003.1 1001.9 0.0
22/04:30pm 30.4 26.7 11.4 31 11.1 WSW 22 37 12 20 1003.3 1002.1 0.0
22/04:00pm 30.9 27.1 11.3 30 11.5 SW 22 39 12 21 1003.3 1002.1 0.0
22/03:30pm 32.5 28.9 13.2 31 11.7 WSW 24 39 13 21 1003.3 1002.1 0.0
22/03:00pm 34.9 31.9 10.7 23 14.3 SW 17 33 9 18 1003.0 1001.8 0.0
22/02:30pm 35.9 34.5 9.4 20 15.4 NE 7 13 4 7 1003.7 1002.6 0.0
22/02:00pm 35.0 32.6 8.7 20 15.1 NNW 11 15 6 8 1004.1 1002.9 0.0
22/01:30pm 33.7 32.5 10.3 24 13.7 N 7 11 4 6 1004.6 1003.4 0.0
22/01:00pm 33.8 33.2 11.6 26 13.3 SW 6 11 3 6 1004.9 1003.7 0.0
22/12:30pm 31.5 30.6 10.8 28 12.1 SSE 6 11 3 6 1005.2 1004.0 0.0
22/12:00pm 31.0 29.6 10.9 29 11.7 ESE 9 15 5 8 1005.5 1004.3 0.0
22/11:30am 30.0 28.4 11.5 32 10.8 ENE 11 17 6 9 1005.9 1004.7 0.0
22/11:00am 28.8 27.7 11.8 35 10.0 ENE 9 19 5 10 1006.5 1005.3 0.0
22/10:30am 27.7 26.4 12.5 39 9.0 ENE 11 20 6 11 1007.0 1005.9 0.0
22/10:00am 26.4 24.0 12.5 42 8.2 ENE 17 28 9 15 1007.5 1006.4 0.0
22/09:30am 24.9 22.4 12.2 45 7.4 E 17 26 9 14 1007.7 1006.6 0.0
22/09:00am 23.5 20.6 12.2 49 6.5 E 19 32 10 17 1008.0 1006.8 0.0
22/08:30am 22.3 20.2 12.3 53 5.7 E 15 30 8 16 1008.3 1007.1 0.0
22/08:00am 20.4 17.4 12.1 59 4.7 ESE 19 32 10 17 1008.7 1007.5 0.0
22/07:30am 19.1 16.4 12.8 67 3.6 ESE 19 30 10 16 1008.9 1007.7 0.0
22/07:00am 17.4 14.4 12.5 73 2.8 ESE 20 30 11 16 1009.3 1008.1 0.0
22/06:30am 16.4 13.5 12.4 77 2.2 ESE 19 33 10 18 1009.4 1008.2 0.0
22/06:00am 15.8 11.9 12.2 79 2.0 ESE 24 37 13 20 1009.6 1008.4 0.0
22/05:30am 15.6 12.5 12.2 80 1.9 ESE 20 33 11 18 1009.5 1008.3 0.0
22/05:00am 15.8 12.3 12.2 79 2.0 ESE 22 39 12 21 1009.5 1008.3 0.0
22/04:30am 16.0 12.9 12.2 78 2.1 ESE 20 33 11 18 1009.4 1008.2 0.0
22/04:00am 16.4 13.4 12.4 77 2.2 ESE 20 32 11 17 1009.5 1008.3 0.0
22/03:30am 16.8 13.3 12.3 75 2.5 ESE 22 41 12 22 1009.7 1008.5 0.0
22/03:00am 17.2 13.7 12.3 73 2.7 ESE 22 35 12 19 1010.0 1008.8 0.0
22/02:30am 17.8 14.0 12.3 70 3.1 ESE 24 41 13 22 1010.2 1009.1 0.0
22/02:00am 18.3 14.8 12.3 68 3.4 ESE 22 39 12 21 1010.3 1009.2 0.0
22/01:30am 19.0 15.6 12.5 66 3.7 ESE 22 35 12 19 1010.6 1009.5 0.0
22/01:00am 19.7 16.4 12.7 64 4.0 ESE 22 33 12 18 1010.5 1009.4 0.0
22/12:30am 20.4 17.5 12.4 60 4.6 ESE 19 32 10 17 1010.6 1009.5 0.0
22/12:00am 21.3 17.5 12.4 57 5.1 ESE 24 43 13 23 1010.5 1009.4 0.0
 
Date/Time
WST
Temp
°C
App
Temp
°C
Dew
Point
°C
Rel
Hum
%
Delta-T
°C
Wind Press
QNH
hPa
Press
MSL
hPa
Rain since
9am
mm
Dir  Spd
km/h
Gust
km/h
Spd
kts
Gust
kts
21/11:30pm 22.3 18.8 12.3 53 5.7 ESE 22 33 12 18 1010.8 1009.7 0.0
21/11:00pm 23.2 20.0 11.9 49 6.5 ESE 20 35 11 19 1010.8 1009.7 0.0
21/10:30pm 24.4 21.1 11.7 45 7.3 ESE 20 32 11 17 1011.0 1009.9 0.0
21/10:00pm 25.6 22.5 11.7 42 8.0 ESE 19 30 10 16 1010.9 1009.8 0.0
21/09:30pm 26.3 23.3 12.0 41 8.3 ESE 19 33 10 18 1010.6 1009.5 0.0
21/09:00pm 26.7 23.4 10.8 37 9.1 SE 19 30 10 16 1010.2 1009.1 0.0
21/08:30pm 26.5 23.5 10.6 37 9.0 SE 17 26 9 14 1010.0 1008.8 0.0
21/08:00pm 26.4 23.9 10.9 38 8.9 SSE 15 19 8 10 1009.9 1008.7 0.0
21/07:30pm 28.9 26.4 9.6 30 10.9 SSE 13 17 7 9 1009.6 1008.4 0.0
21/07:00pm 30.4 28.2 9.3 27 12.0 SE 11 19 6 10 1009.5 1008.3 0.0
21/06:30pm 32.1 29.6 9.6 25 12.9 SE 13 20 7 11 1009.4 1008.2 0.0
21/06:00pm 32.6 30.6 10.0 25 13.1 SE 11 24 6 13 1009.3 1008.1 0.0
21/05:30pm 33.1 30.5 9.2 23 13.7 SSE 13 26 7 14 1009.1 1007.9 0.0
21/05:00pm 33.5 30.8 8.9 22 14.1 ESE 13 24 7 13 1009.1 1007.9 0.0
21/04:30pm 34.0 31.2 8.6 21 14.5 ESE 13 24 7 13 1009.2 1008.0 0.0
21/04:00pm 33.9 31.3 7.8 20 14.7 SE 11 22 6 12 1009.6 1008.4 0.0
21/03:30pm 33.3 30.8 8.0 21 14.2 SE 11 19 6 10 1009.8 1008.6 0.0
21/03:00pm 32.7 29.8 8.2 22 13.8 SE 13 22 7 12 1010.0 1008.8 0.0
21/02:30pm 32.7 30.4 8.9 23 13.5 SE 11 20 6 11 1010.3 1009.2 0.0
21/02:00pm 32.1 30.3 10.8 27 12.5 ENE 11 22 6 12 1010.6 1009.5 0.0
21/01:30pm 31.9 29.6 10.6 27 12.4 SE 13 20 7 11 1011.0 1009.9 0.0
21/01:00pm 30.7 28.7 11.6 31 11.2 SSE 13 22 7 12 1011.4 1010.3 0.0
21/12:30pm 30.2 28.5 12.6 34 10.5 SSE 13 22 7 12 1011.9 1010.7 0.0
21/12:00pm 29.8 28.3 13.1 36 10.0 SSE 13 26 7 14 1012.2 1011.0 0.0
21/11:30am 28.5 26.8 13.6 40 9.0 SE 15 26 8 14 1012.8 1011.6 0.0
21/11:00am 27.5 25.5 13.8 43 8.2 SE 17 30 9 16 1013.1 1011.9 0.0
21/10:30am 27.0 24.7 14.1 45 7.8 SE 19 32 10 17 1013.4 1012.3 0.0
21/10:00am 26.2 24.8 14.6 48 7.0 SE 15 26 8 14 1013.6 1012.5 0.0
21/09:30am 24.8 23.8 14.6 53 6.1 ESE 13 20 7 11 1013.8 1012.7 0.0
21/09:00am 23.0 21.0 13.8 56 5.4 ESE 17 28 9 15 1013.7 1012.6 0.0
21/08:30am 21.5 19.3 14.4 64 4.2 ESE 19 32 10 17 1013.7 1012.6 0.0
21/08:00am 20.3 18.1 14.4 69 3.5 ESE 19 32 10 17 1013.9 1012.8 0.0
21/07:30am 19.0 17.1 14.3 74 2.7 ESE 17 30 9 16 1014.0 1012.9 0.0
21/07:00am 18.0 15.5 14.1 78 2.3 SE 20 33 11 18 1014.1 1013.0 0.0
21/06:30am 17.6 15.2 14.3 81 1.9 ESE 20 32 11 17 1013.8 1012.7 0.0
21/06:00am 17.4 15.0 14.3 82 1.8 ESE 20 32 11 17 1013.6 1012.5 0.0
21/05:30am 17.6 15.2 14.3 81 1.9 ESE 20 32 11 17 1013.5 1012.4 0.0
21/05:00am 18.0 15.6 14.3 79 2.2 ESE 20 30 11 16 1013.3 1012.1 0.0
21/04:30am 18.4 16.2 14.3 77 2.4 ESE 19 32 10 17 1013.1 1011.9 0.0
21/04:00am 18.9 16.5 14.4 75 2.6 ESE 20 35 11 19 1013.0 1011.8 0.0
21/03:30am 19.4 17.3 14.6 74 2.8 ESE 19 32 10 17 1012.9 1011.7 0.0
21/03:00am 19.9 17.9 14.9 73 3.0 SE 19 33 10 18 1013.0 1011.8 0.0
21/02:30am 20.4 18.3 15.2 72 3.1 ESE 20 32 11 17 1012.9 1011.7 0.0
21/02:00am 20.9 19.0 15.2 70 3.4 SE 19 28 10 15 1013.0 1011.8 0.0
21/01:30am 21.4 19.4 15.5 69 3.6 SE 20 32 11 17 1013.0 1011.8 0.0
21/01:00am 21.9 20.5 15.5 67 3.9 SE 17 30 9 16 1012.9 1011.7 0.0
21/12:30am 22.6 20.7 15.7 65 4.2 SE 20 32 11 17 1012.9 1011.7 0.0
21/12:00am 23.2 21.3 15.8 63 4.5 SE 20 37 11 20 1012.9 1011.7 0.0
 
Date/Time
WST
Temp
°C
App
Temp
°C
Dew
Point
°C
Rel
Hum
%
Delta-T
°C
Wind Press
QNH
hPa
Press
MSL
hPa
Rain since
9am
mm
Dir  Spd
km/h
Gust
km/h
Spd
kts
Gust
kts
20/11:30pm 23.6 22.3 15.9 62 4.7 ESE 17 30 9 16 1013.0 1011.8 0.0
20/11:00pm 24.2 22.4 15.9 59 5.1 SE 20 32 11 17 1012.9 1011.7 0.0

Other formats

Comma delimited format used in spreadsheet applications
http://www.bom.gov.au/fwo/IDW60801/IDW60801.94620.axf

JavaScript Object Notation format (JSON) in row-major order
http://www.bom.gov.au/fwo/IDW60801/IDW60801.94620.json

Data quality

Most of these data are generated automatically and are frequently updated. Quality checks on data are not normally performed. It is possible for incorrect values to appear. Refer to information at About Latest Weather Observations and please check the disclaimer before using these data.